Air Sicilia Virtual Airways - Route

Air Sicilia Virtual Airways - SIC033D

( IT ) LIMC - 08:00
Malpensa International Airport
MILAN ( MXP )
plane_to ( IT ) LIRF - 09:15
Leonardo da Vinci (Fiumicino) International Airport
ROME ( FCO )

AIRPORT NEAR NAVIGATION AIDS

Type Name Frequency
VOR-DME Malpensa 111200 KHZ
NDB Malpensa 364 KHZ

METAR / TAF
LIMC 211720Z 21005KT 160V250 CAVOK 31/13 Q1015 NOSIG
LIMC 211100Z 2112/2218 02005KT 9999 SCT060= LIMJ 211100Z 2112/2212 VRB05KT CAVOK

RUNWAY INFORMATION

Runway Runway length Runway width Runway elevation Runway displaced threshold Runway heading
17L 12861 197 745 3094 169.6
35R 12861 197 691 0 349.6
17R 12861 197 764 0 169.6
35L 12861 197 696 1329 349.6

AIRPORT FREQUENCIES

Type Name Frequency
APP MILANO APP 132.7 MHZ
ATIS ATIS 120.025 MHZ
CLD CLNC DEL 120.9 MHZ
DEP MILANO DEP 126.75 MHZ
GND GND 121.9 MHZ
TWR TWR 119 MHZ

AIRPORT NEAR NAVIGATION AIDS

Type Name Frequency
NDB Fiumicino 354 KHZ
NDB Fiumicino 421 KHZ
NDB Fiumicino 345 KHZ
VOR-DME Ostia 114900 KHZ
NDB Ostia 321 KHZ

METAR / TAF
LIRF 211720Z 31004KT 270V340 9999 VCSHRA FEW015CB 26/15 Q1013 NOSIG
LIRF 211100Z 2112/2218 27012KT 9999 SCT030 TEMPO 2116/2118 TSRA BECMG 2117/2119 VRB05KT BECMG 2208/2210 27012KT

RUNWAY INFORMATION

Runway Runway length Runway width Runway elevation Runway displaced threshold Runway heading
07 10849 148 7 1365 70
25 10849 148 7 0 250
16C 11818 148 11 0 163
34C 11818 148 4 0 343
16L 12795 197 14 0 163
34R 12795 197 7 0 343
16R 12795 197 7 0 163
34L 12795 197 8 1053 343

AIRPORT FREQUENCIES

Type Name Frequency
ARR ROMA DIREC 119.2 MHZ
ATIS ATIS 114.9 MHZ
CLD FIUME RAMP 121.725 MHZ
GND FIUME GND/ 121.8 MHZ
TWR FIUME TWR 118.7 MHZ

Flightplan

EKPAL Q705 XIBIL

Air Sicilia Virtual Airways Fleets

AVAILABLE AIRCRAFTS for route at this time in Malpensa International Airport

At this time no aircraft Air Sicilia Virtual Airways is available at Malpensa International Airport
Only Charter flights.

276.18 NM

Distance in nautical miles.

€ 60,00

Ticket price for this flight.

1.03 h.

Estimated flight time.



07-08-2018
Aerosoft Professional Flight Planner PFPX

PFPX - Professional Flight Planner X - è un nuovo ed innovativo strumento di pianificazione del volo sviluppato da piloti e dispatcher del mondo reale. È un'aggiunta preziosa e realistica alla tua esperienza di simulaz ....


19-07-2018
Aerosoft Oslo X

L'Aeroporto di Oslo-Gardermoen (IATA: OSL, ICAO: ENGM) è il principale aeroporto norvegese e il 19° in Europa, è situato vicino alla cittadina di Ullensaker nella contea di Akershus e serve la capitale Oslo. Ha sostit ....


21-06-2018
Aerosoft Malpensa Professional P3Dv4

L'Aeroporto di Milano-Malpensa (IATA: MXP, ICAO: LIMC) è un aeroporto italiano situato nella provincia di Varese in Lombardia, ma considerato come il principale aeroporto di Milano.

È il secondo aeroporto ital ....


06-06-2018
1° Raduno Air Sicilia Virtual - parla il C.E.O.

Grande successo per il 1° Raduno di Compagnia dell'Air Sicilia Virtual, che ha visto i membri della Crew presenti il 4 giugno 2018 a Thiene ( VI ) , cimentarsi dal vivo con le reali ....


24-05-2018
Aerosoft Airport Rome XP

Tra le nostre recensioni non poteva mancare certo la nuova uscita Aerosoft per X-Plane, stiamo parlando di Airport Rome XP, finalmente un Add-on pay completo dell'Aeroporto di Roma Fiumicino per gli utilizzatori del simu ....